Time;durP1;ratioP1;P1;durP2;ratioP2;P2;SDS_P1;SDS_P2;PMS_P1;PMS_P2;Temp;Humidity;BMP_temperature;BMP_pressure;BME280_temperature;BME280_humidity;BME280_pressure;Samples;Min_cycle;Max_cycle;Signal;HPM_P1;HPM_P2
2021/03/26 00:01:45;;;;;;;4.10;2.92;;;;;;;20.79;46.90;101247.91;1831065;77;21188;-55
2021/03/26 00:04:12;;;;;;;4.22;2.98;;;;;;;20.80;46.93;101245.38;1794201;78;21084;-56
2021/03/26 00:06:44;;;;;;;3.27;2.72;;;;;;;20.81;46.95;101247.02;1794461;78;21096;-55
2021/03/26 00:09:17;;;;;;;4.22;3.45;;;;;;;20.79;46.93;101250.09;1767208;79;21185;-56
2021/03/26 00:11:45;;;;;;;4.28;2.77;;;;;;;20.76;46.95;101241.03;1763466;80;21581;-55
2021/03/26 00:14:11;;;;;;;4.83;3.20;;;;;;;20.72;47.01;101248.30;1794262;78;21557;-55
2021/03/26 00:16:37;;;;;;;4.00;3.10;;;;;;;20.71;47.07;101245.27;1790816;78;22366;-56
2021/03/26 00:19:04;;;;;;;4.65;3.02;;;;;;;20.71;47.12;101242.51;1794397;78;21118;-54
2021/03/26 00:21:30;;;;;;;4.53;3.15;;;;;;;20.73;47.13;101249.12;1761774;80;21194;-56
2021/03/26 00:23:57;;;;;;;4.72;3.20;;;;;;;20.69;47.16;101253.08;1784315;78;21190;-54
2021/03/26 00:26:24;;;;;;;4.72;3.12;;;;;;;20.66;47.14;101255.64;1773046;79;21208;-55
2021/03/26 00:28:51;;;;;;;5.33;3.67;;;;;;;20.63;47.20;101250.14;1766635;79;21210;-54
2021/03/26 00:31:17;;;;;;;4.37;3.12;;;;;;;20.62;47.27;101247.14;1764856;79;21579;-54
2021/03/26 00:33:44;;;;;;;4.50;3.62;;;;;;;20.64;47.29;101246.82;1767108;79;21174;-55
2021/03/26 00:36:11;;;;;;;5.22;3.75;;;;;;;20.64;47.29;101243.50;1763539;80;21230;-55
2021/03/26 00:38:37;;;;;;;5.28;3.55;;;;;;;20.65;47.28;101249.84;1791564;78;22234;-55
2021/03/26 00:41:04;;;;;;;4.40;3.52;;;;;;;20.61;47.29;101251.59;1796917;78;21197;-58
2021/03/26 00:43:30;;;;;;;5.42;3.60;;;;;;;20.57;47.27;101246.42;1761976;80;21279;-54
2021/03/26 00:45:57;;;;;;;5.03;3.20;;;;;;;20.54;47.27;101245.07;1783910;79;21184;-54
2021/03/26 00:48:24;;;;;;;5.53;3.60;;;;;;;20.53;47.29;101243.45;1770686;80;21506;-55
2021/03/26 00:50:55;;;;;;;5.25;3.00;;;;;;;20.52;47.24;101243.19;1771301;80;21201;-55
2021/03/26 00:53:35;;;;;;;5.25;3.42;;;;;;;20.49;47.22;101243.25;1783759;78;21240;-55
2021/03/26 00:56:04;;;;;;;5.12;3.40;;;;;;;20.44;47.20;101239.20;1781311;78;21563;-54
2021/03/26 00:58:30;;;;;;;4.10;3.10;;;;;;;20.39;47.16;101243.44;1806981;78;21178;-55
2021/03/26 01:00:57;;;;;;;4.92;3.60;;;;;;;20.37;47.21;101242.09;1770016;78;21175;-54
2021/03/26 01:03:25;;;;;;;4.45;3.15;;;;;;;20.36;47.19;101244.06;1768499;78;21197;-55
2021/03/26 01:05:55;;;;;;;5.20;3.83;;;;;;;20.35;47.16;101238.27;1782734;78;21193;-59
2021/03/26 01:08:22;;;;;;;4.78;3.25;;;;;;;20.36;47.13;101244.06;1800181;78;21531;-54
2021/03/26 01:10:53;;;;;;;4.92;3.20;;;;;;;20.37;47.11;101243.47;1766664;80;21115;-55
2021/03/26 01:13:20;;;;;;;4.30;3.20;;;;;;;20.36;47.06;101243.23;1777384;78;21542;-55
2021/03/26 01:15:47;;;;;;;5.53;3.47;;;;;;;20.39;47.03;101245.38;1780883;79;21142;-55
2021/03/26 01:18:24;;;;;;;4.55;3.62;;;;;;;20.43;47.01;101243.64;1777292;80;21207;-55
2021/03/26 01:20:51;;;;;;;5.42;3.55;;;;;;;20.48;46.94;101241.61;1794349;78;21454;-54
2021/03/26 01:23:17;;;;;;;4.35;3.08;;;;;;;20.51;46.85;101247.89;1789389;78;21158;-55
2021/03/26 01:25:44;;;;;;;4.55;3.02;;;;;;;20.54;46.78;101250.59;1760884;80;21138;-53
2021/03/26 01:28:15;;;;;;;4.10;3.25;;;;;;;20.53;46.73;101246.22;1765499;79;21217;-53
2021/03/26 01:30:42;;;;;;;4.25;3.27;;;;;;;20.56;46.70;101251.13;1764510;79;21149;-55
2021/03/26 01:33:08;;;;;;;4.25;3.35;;;;;;;20.60;46.66;101252.71;1769803;79;21449;-55
2021/03/26 01:35:36;;;;;;;3.42;3.02;;;;;;;20.64;46.57;101249.59;1768339;79;21868;-55
2021/03/26 01:38:03;;;;;;;6.15;3.47;;;;;;;20.67;46.50;101246.20;1772735;79;21657;-55
2021/03/26 01:40:30;;;;;;;3.60;2.95;;;;;;;20.69;46.47;101248.11;1777364;79;21263;-55
2021/03/26 01:43:13;;;;;;;4.70;3.50;;;;;;;20.69;46.41;101246.16;1773744;79;21233;-55
2021/03/26 01:45:39;;;;;;;4.62;3.12;;;;;;;20.70;46.38;101242.28;1774234;79;21295;-54
2021/03/26 01:48:08;;;;;;;4.28;3.08;;;;;;;20.73;46.32;101244.42;1776791;79;21588;-55
2021/03/26 01:50:35;;;;;;;4.35;2.98;;;;;;;20.78;46.28;101243.50;1778506;79;21150;-55
2021/03/26 01:53:02;;;;;;;4.62;3.30;;;;;;;20.78;46.21;101240.17;1779110;79;21226;-55
2021/03/26 01:55:40;;;;;;;4.20;3.05;;;;;;;20.78;46.15;101243.50;1781579;79;21292;-54
2021/03/26 01:58:07;;;;;;;4.70;3.67;;;;;;;20.78;46.12;101244.32;1773253;79;21173;-55
2021/03/26 02:00:44;;;;;;;4.47;3.10;;;;;;;20.79;46.10;101244.55;1787321;79;21128;-54
2021/03/26 02:03:28;;;;;;;3.90;3.15;;;;;;;20.81;46.08;101242.31;1770581;79;21561;-55
2021/03/26 02:05:57;;;;;;;4.95;3.33;;;;;;;20.84;46.00;101245.02;1768988;79;21202;-55
2021/03/26 02:08:31;;;;;;;5.12;3.08;;;;;;;20.86;45.94;101244.16;1766281;79;21154;-55
2021/03/26 02:11:00;;;;;;;4.75;3.47;;;;;;;20.85;45.89;101245.27;1782647;79;21142;-55
2021/03/26 02:13:29;;;;;;;4.10;3.25;;;;;;;20.84;45.84;101245.84;1778684;78;21170;-55
2021/03/26 02:15:58;;;;;;;5.17;3.35;;;;;;;20.83;45.84;101246.16;1799946;78;21201;-56
2021/03/26 02:18:29;;;;;;;4.28;3.35;;;;;;;20.85;45.81;101243.33;1794257;78;21233;-56
2021/03/26 02:21:01;;;;;;;;;;;;;;;20.88;45.78;101246.86;1797187;78;21222;-55
2021/03/26 02:23:37;;;;;;;4.92;3.37;;;;;;;20.94;45.70;101245.63;1858278;75;22885;-54
2021/03/26 02:26:07;;;;;;;5.60;3.98;;;;;;;20.90;45.66;101241.84;1829148;77;21117;-54
2021/03/26 02:28:33;;;;;;;5.83;3.70;;;;;;;20.90;45.60;101247.37;1827815;77;20992;-55
2021/03/26 02:31:00;;;;;;;5.17;3.60;;;;;;;20.90;45.58;101244.61;1826434;77;21537;-55
2021/03/26 02:33:27;;;;;;;5.47;3.20;;;;;;;20.92;45.57;101245.67;1795045;78;21118;-55
2021/03/26 02:36:17;;;;;;;5.28;3.10;;;;;;;20.95;45.51;101251.42;1771020;78;21170;-54
2021/03/26 02:38:54;;;;;;;4.72;3.27;;;;;;;20.97;45.46;101251.92;1762645;79;21376;-55
2021/03/26 02:41:38;;;;;;;4.20;3.27;;;;;;;21.03;45.37;101249.88;1869193;75;22191;-55
2021/03/26 02:44:28;;;;;;;3.98;3.15;;;;;;;20.96;45.35;101247.51;1833532;77;21145;-54
2021/03/26 02:47:10;;;;;;;5.50;3.35;;;;;;;20.98;45.34;101252.74;1828696;77;21139;-54
2021/03/26 02:50:00;;;;;;;5.62;3.40;;;;;;;21.00;45.30;101257.42;1778046;78;21020;-55
2021/03/26 02:52:47;;;;;;;6.95;4.17;;;;;;;21.03;45.20;101249.05;1772690;79;20987;-55
2021/03/26 02:55:28;;;;;;;4.90;3.50;;;;;;;21.03;45.16;101251.81;1776802;79;21007;-54
2021/03/26 02:58:08;;;;;;;8.93;4.33;;;;;;;21.02;45.11;101262.06;1771256;79;21039;-55
2021/03/26 03:00:44;;;;;;;5.83;3.77;;;;;;;21.02;45.08;101259.85;1770624;79;20950;-55
2021/03/26 03:03:10;;;;;;;4.87;3.70;;;;;;;21.02;45.06;101253.77;1780711;79;21391;-54
2021/03/26 03:05:42;;;;;;;5.67;3.83;;;;;;;21.06;45.01;101256.16;1728492;80;21446;-55
2021/03/26 03:08:23;;;;;;;5.25;3.35;;;;;;;21.10;44.96;101259.12;1773291;79;21513;-55
2021/03/26 03:11:09;;;;;;;5.22;3.60;;;;;;;21.10;44.91;101261.89;1769544;79;21153;-55
2021/03/26 03:13:40;;;;;;;5.00;3.02;;;;;;;21.09;44.85;101260.27;1772283;79;21206;-55
2021/03/26 03:16:16;;;;;;;5.72;3.70;;;;;;;21.08;44.85;101264.98;1770685;79;21127;-53
2021/03/26 03:19:09;;;;;;;5.35;3.77;;;;;;;21.09;44.83;101263.83;1765193;79;21215;-54
2021/03/26 03:21:50;;;;;;;5.20;3.83;;;;;;;21.12;44.78;101266.56;1768080;79;21189;-54
2021/03/26 03:24:24;;;;;;;5.35;3.90;;;;;;;21.14;44.72;101272.62;1772595;80;21170;-55
2021/03/26 03:27:05;;;;;;;5.17;3.55;;;;;;;21.12;44.68;101270.19;1770638;79;21224;-55
2021/03/26 03:29:37;;;;;;;5.12;3.62;;;;;;;21.11;44.62;101274.60;1768595;80;21256;-55
2021/03/26 03:32:39;;;;;;;6.12;3.98;;;;;;;21.08;44.61;101276.05;1776015;79;21167;-55
2021/03/26 03:35:29;;;;;;;4.80;3.72;;;;;;;21.10;44.60;101279.88;1767793;80;21135;-54
2021/03/26 03:38:21;;;;;;;7.50;4.05;;;;;;;21.11;44.56;101280.95;1773478;79;21113;-54
2021/03/26 03:41:15;;;;;;;5.12;4.03;;;;;;;21.11;44.50;101288.44;1761922;79;21236;-55
2021/03/26 03:44:23;;;;;;;5.60;3.75;;;;;;;21.08;44.44;101289.88;1731247;81;21201;-54
2021/03/26 03:46:54;;;;;;;5.67;3.70;;;;;;;21.05;44.41;101295.22;1754599;80;21527;-53
2021/03/26 03:49:50;;;;;;;5.03;3.72;;;;;;;21.02;44.41;101298.58;1757398;80;21181;-48
2021/03/26 03:52:37;;;;;;;5.00;3.98;;;;;;;21.03;44.40;101303.00;1750813;80;21194;-53
2021/03/26 03:55:18;;;;;;;5.97;4.58;;;;;;;21.02;44.33;101302.17;1756946;80;21150;-51
2021/03/26 03:57:53;;;;;;;5.72;4.28;;;;;;;21.02;44.29;101312.41;1760047;80;21225;-52
2021/03/26 04:00:27;;;;;;;5.95;4.45;;;;;;;21.00;44.25;101317.45;1756486;80;21241;-51
2021/03/26 04:03:16;;;;;;;7.17;4.80;;;;;;;20.95;44.24;101312.84;1783485;78;21192;-50
2021/03/26 04:05:54;;;;;;;6.78;4.20;;;;;;;20.92;44.24;101317.02;1781571;80;21652;-51
2021/03/26 04:08:28;;;;;;;7.05;4.50;;;;;;;20.91;44.21;101318.17;1776300;79;21719;-51
2021/03/26 04:11:15;;;;;;;6.25;4.62;;;;;;;20.92;44.19;101324.50;1763741;80;21210;-52
2021/03/26 04:13:47;;;;;;;7.95;5.45;;;;;;;20.91;44.13;101327.03;1761186;80;21203;-52
2021/03/26 04:16:16;;;;;;;6.15;4.78;;;;;;;20.87;44.13;101332.36;1761829;80;21176;-52
2021/03/26 04:18:50;;;;;;;5.90;4.62;;;;;;;20.84;44.10;101331.57;1757513;80;21225;-53
2021/03/26 04:21:24;;;;;;;7.08;5.37;;;;;;;20.82;44.11;101333.02;1752815;80;21310;-53
2021/03/26 04:24:01;;;;;;;6.78;5.10;;;;;;;20.81;44.10;101332.19;1766191;79;21225;-52
2021/03/26 04:26:52;;;;;;;9.58;4.92;;;;;;;20.81;44.06;101332.75;1767665;79;21389;-51
2021/03/26 04:29:51;;;;;;;7.17;5.10;;;;;;;20.79;44.02;101335.02;1758716;80;21217;-53
2021/03/26 04:32:18;;;;;;;6.97;4.97;;;;;;;20.76;43.97;101333.67;1735176;80;21685;-52
2021/03/26 04:34:45;;;;;;;7.20;4.87;;;;;;;20.73;43.97;101335.67;1762710;80;21664;-50
2021/03/26 04:37:38;;;;;;;8.38;5.42;;;;;;;20.73;43.96;101336.23;1767014;80;21217;-50
2021/03/26 04:40:24;;;;;;;8.33;5.90;;;;;;;20.74;43.94;101333.73;1760295;79;21309;-50
2021/03/26 04:43:05;;;;;;;8.10;5.45;;;;;;;20.74;43.90;101335.11;1769070;80;21250;-50
2021/03/26 04:46:01;;;;;;;7.40;5.40;;;;;;;20.73;43.88;101338.99;1762057;80;21198;-50
2021/03/26 04:48:41;;;;;;;7.42;5.40;;;;;;;20.72;43.87;101338.17;1763839;80;21581;-51
2021/03/26 04:51:23;;;;;;;7.67;5.17;;;;;;;20.74;43.88;101337.88;1766313;80;21542;-50
2021/03/26 04:54:13;;;;;;;7.45;5.25;;;;;;;20.76;43.87;101337.81;1755618;80;21167;-50
2021/03/26 04:56:44;;;;;;;9.40;5.00;;;;;;;20.79;43.84;101341.34;1763299;80;21039;-53
2021/03/26 04:59:11;;;;;;;9.83;5.50;;;;;;;20.81;43.79;101347.41;1759975;80;21532;-53
2021/03/26 05:01:37;;;;;;;7.70;5.30;;;;;;;20.80;43.78;101337.45;1764067;80;21204;-50
2021/03/26 05:04:10;;;;;;;8.43;5.45;;;;;;;20.81;43.77;101348.78;1764011;80;21142;-51
2021/03/26 05:06:44;;;;;;;8.80;5.53;;;;;;;20.84;43.77;101346.78;1761631;80;21596;-48
2021/03/26 05:09:25;;;;;;;8.00;5.10;;;;;;;20.93;43.72;101341.36;1828206;76;22521;-52
2021/03/26 05:11:55;;;;;;;8.03;5.83;;;;;;;20.92;43.69;101351.59;1789792;78;21217;-51
2021/03/26 05:14:31;;;;;;;8.88;5.70;;;;;;;20.93;43.64;101353.24;1792690;78;21395;-49
2021/03/26 05:17:02;;;;;;;7.67;5.58;;;;;;;20.93;43.62;101353.24;1791067;78;21162;-51
2021/03/26 05:19:54;;;;;;;7.72;5.30;;;;;;;20.94;43.62;101360.42;1787974;78;21442;-52
2021/03/26 05:22:41;;;;;;;7.80;5.30;;;;;;;20.96;43.60;101359.53;1794216;78;21177;-49
2021/03/26 05:25:22;;;;;;;7.25;5.47;;;;;;;21.02;43.57;101366.36;1754874;80;21424;-50
2021/03/26 05:27:48;;;;;;;8.03;5.62;;;;;;;21.04;43.49;101371.04;1789504;78;21433;-53
2021/03/26 05:30:28;;;;;;;8.30;5.83;;;;;;;21.05;43.46;101373.48;1793519;78;21462;-51
2021/03/26 05:33:00;;;;;;;8.30;5.63;;;;;;;21.06;43.42;101378.45;1788594;78;21229;-49
2021/03/26 05:35:32;;;;;;;8.40;5.62;;;;;;;21.06;43.43;101382.60;1793864;78;21159;-51
2021/03/26 05:38:07;;;;;;;6.75;5.42;;;;;;;21.09;43.41;101383.39;1792538;78;21570;-50
2021/03/26 05:40:54;;;;;;;6.75;4.97;;;;;;;21.12;43.38;101385.01;1788228;78;23578;-52
2021/03/26 05:43:42;;;;;;;8.00;5.90;;;;;;;21.15;43.32;101382.17;1791339;77;21138;-51
2021/03/26 05:46:29;;;;;;;9.23;6.03;;;;;;;21.16;43.29;101384.65;1794012;78;21569;-51
2021/03/26 05:49:07;;;;;;;9.50;5.35;;;;;;;21.17;43.23;101382.70;1784110;78;21187;-53
2021/03/26 05:51:45;;;;;;;7.45;5.47;;;;;;;21.15;43.22;101383.00;1791290;78;21614;-50
2021/03/26 05:55:01;;;;;;;8.08;5.65;;;;;;;21.17;43.22;101384.91;1789200;78;22133;-50
2021/03/26 05:58:02;;;;;;;8.18;5.53;;;;;;;21.20;43.19;101388.44;1793470;78;21245;-52
2021/03/26 06:01:13;;;;;;;7.60;5.87;;;;;;;21.22;43.14;101386.73;1793480;78;21143;-53
2021/03/26 06:04:17;;;;;;;7.40;5.50;;;;;;;21.22;43.12;101391.70;1792750;78;21244;-51
2021/03/26 06:07:15;;;;;;;8.55;5.78;;;;;;;21.21;43.13;101390.65;1791679;78;21217;-54
2021/03/26 06:10:04;;;;;;;7.83;5.40;;;;;;;21.24;43.12;101395.00;1780128;78;22164;-54
2021/03/26 06:13:04;;;;;;;7.75;6.03;;;;;;;21.26;43.06;101396.88;1788049;78;21197;-54
2021/03/26 06:16:00;;;;;;;8.38;5.62;;;;;;;21.27;43.03;101393.55;1791782;78;21174;-55
2021/03/26 06:18:41;;;;;;;8.18;5.97;;;;;;;21.26;42.99;101396.08;1790596;78;21522;-54
2021/03/26 06:21:45;;;;;;;7.45;5.80;;;;;;;21.25;43.00;101394.44;1791548;78;21221;-54
2021/03/26 06:24:41;;;;;;;9.58;5.97;;;;;;;21.26;43.02;101399.64;1792781;78;21210;-54
2021/03/26 06:27:21;;;;;;;8.15;5.75;;;;;;;21.30;42.98;101406.80;1786679;78;21191;-58
2021/03/26 06:30:26;;;;;;;7.73;5.70;;;;;;;21.32;43.00;101406.73;1787208;78;21171;-58
2021/03/26 06:33:22;;;;;;;8.08;6.20;;;;;;;21.33;42.96;101403.40;1790560;78;21157;-57
2021/03/26 06:36:40;;;;;;;10.93;7.28;;;;;;;21.34;42.97;101406.43;1755818;80;21184;-56
2021/03/26 06:39:45;;;;;;;9.15;6.10;;;;;;;21.34;42.97;101414.14;1762305;80;21574;-56
2021/03/26 06:42:23;;;;;;;10.55;7.20;;;;;;;21.37;42.96;101417.70;1792060;78;21211;-56
2021/03/26 06:45:08;;;;;;;11.15;7.78;;;;;;;21.41;42.88;101422.05;1787330;78;21226;-57
2021/03/26 06:48:24;;;;;;;14.15;8.50;;;;;;;21.45;42.80;101423.08;1785232;78;21223;-58
2021/03/26 06:51:24;;;;;;;10.05;7.35;;;;;;;21.46;42.70;101432.20;1791300;78;21084;-57
2021/03/26 06:54:20;;;;;;;9.95;6.60;;;;;;;21.45;42.51;101434.70;1789254;78;22020;-57
2021/03/26 06:57:10;;;;;;;10.10;7.55;;;;;;;21.49;42.37;101432.96;1789701;78;21154;-55
2021/03/26 07:00:05;;;;;;;13.48;7.85;;;;;;;21.52;42.10;101429.01;1794108;78;21211;-54
2021/03/26 07:03:01;;;;;;;16.00;8.28;;;;;;;21.53;41.81;101428.45;1792651;78;21189;-56
2021/03/26 07:05:56;;;;;;;11.22;7.28;;;;;;;21.51;41.60;101435.70;1791394;78;21174;-57
2021/03/26 07:08:40;;;;;;;10.90;6.67;;;;;;;21.55;41.31;101437.28;1866531;75;22806;-54
2021/03/26 07:11:42;;;;;;;12.20;7.08;;;;;;;21.50;41.24;101435.99;1829943;77;21157;-56
2021/03/26 07:14:37;;;;;;;8.95;6.28;;;;;;;21.52;41.00;101435.11;1833292;77;22333;-53
2021/03/26 07:17:47;;;;;;;9.65;6.25;;;;;;;21.52;40.80;101441.47;1829751;77;21205;-54
2021/03/26 07:20:23;;;;;;;8.93;6.08;;;;;;;21.50;40.67;101442.36;1832164;77;21047;-56
2021/03/26 07:23:13;;;;;;;8.85;5.78;;;;;;;21.50;40.67;101439.59;1828454;77;21277;-55
2021/03/26 07:26:00;;;;;;;8.35;5.25;;;;;;;21.53;40.64;101440.91;1792416;78;20991;-54
2021/03/26 07:28:58;;;;;;;8.58;5.03;;;;;;;21.55;40.61;101435.33;1791743;78;21248;-56
2021/03/26 07:31:43;;;;;;;6.62;4.50;;;;;;;21.58;40.57;101443.58;1762719;80;21115;-54
2021/03/26 07:34:57;;;;;;;8.33;4.67;;;;;;;21.63;40.54;101444.86;1856595;75;22316;-52
2021/03/26 07:37:44;;;;;;;6.20;4.25;;;;;;;21.59;40.58;101447.43;1821319;76;21190;-51
2021/03/26 07:40:54;;;;;;;8.30;4.60;;;;;;;21.63;40.59;101451.78;1816180;76;22248;-51
2021/03/26 07:43:58;;;;;;;6.08;4.17;;;;;;;21.67;40.57;101450.03;1822647;76;21352;-55
2021/03/26 07:46:49;;;;;;;6.53;3.80;;;;;;;21.68;40.56;101446.97;1807068;76;21520;-54
2021/03/26 07:49:32;;;;;;;7.78;4.37;;;;;;;21.68;40.56;101446.97;1819448;76;21054;-55
2021/03/26 07:52:27;;;;;;;5.25;3.60;;;;;;;21.68;40.59;101444.76;1801893;76;21146;-49
2021/03/26 07:55:31;;;;;;;4.60;3.67;;;;;;;21.73;40.61;101447.39;1812765;76;21181;-53
2021/03/26 07:58:41;;;;;;;6.53;4.15;;;;;;;21.77;40.59;101455.33;1810449;76;21125;-55
2021/03/26 08:01:40;;;;;;;6.97;4.03;;;;;;;21.80;40.57;101458.89;1813817;76;21192;-55
2021/03/26 08:04:18;;;;;;;10.58;4.72;;;;;;;21.79;40.56;101459.45;1803568;76;21501;-55
2021/03/26 08:07:30;;;;;;;4.87;3.37;;;;;;;21.80;40.59;101458.89;1810752;76;21145;-56
2021/03/26 08:10:23;;;;;;;5.80;3.85;;;;;;;21.82;40.62;101465.75;1822726;76;21553;-54
2021/03/26 08:13:33;;;;;;;6.03;3.47;;;;;;;21.86;40.60;101470.92;1769839;78;21205;-54
2021/03/26 08:16:46;;;;;;;5.12;3.27;;;;;;;21.88;40.57;101464.52;1804560;76;21329;-56
2021/03/26 08:19:24;;;;;;;7.42;3.65;;;;;;;21.90;40.57;101470.33;1812287;76;21634;-57
2021/03/26 08:22:14;;;;;;;5.80;2.98;;;;;;;21.91;40.57;101465.02;1750931;76;21230;-56
2021/03/26 08:24:56;;;;;;;4.72;2.80;;;;;;;21.93;40.58;101466.39;1807410;76;21222;-59
2021/03/26 08:27:30;;;;;;;4.15;2.77;;;;;;;21.98;40.58;101469.03;1804212;76;21460;-58
2021/03/26 08:30:35;;;;;;;4.70;2.83;;;;;;;22.02;40.39;101470.64;1811256;76;21545;-58
2021/03/26 08:33:37;;;;;;;5.90;3.20;;;;;;;22.04;40.11;101475.28;1801693;76;21791;-58
2021/03/26 08:36:12;;;;;;;3.75;2.52;;;;;;;22.04;39.70;101478.06;1823817;76;21192;-59
2021/03/26 08:39:10;;;;;;;4.87;2.52;;;;;;;22.05;39.48;101475.55;1813549;76;21185;-60
2021/03/26 08:41:39;;;;;;;7.10;3.90;;;;;;;22.07;39.29;101472.70;1817301;76;21238;-59
2021/03/26 08:44:06;;;;;;;6.70;2.80;;;;;;;22.11;38.99;101471.52;1808851;76;21759;-60
2021/03/26 08:46:37;;;;;;;5.40;3.20;;;;;;;22.11;38.80;101475.67;1816996;76;21192;-60
2021/03/26 08:49:46;;;;;;;3.92;2.98;;;;;;;22.11;38.63;101471.52;1831968;76;21141;-59
2021/03/26 08:52:44;;;;;;;4.62;3.37;;;;;;;22.08;38.54;101474.36;1825112;76;21204;-61
2021/03/26 08:55:41;;;;;;;5.00;3.02;;;;;;;22.07;38.45;101472.70;1818470;76;21201;-55
2021/03/26 08:58:34;;;;;;;4.78;3.05;;;;;;;22.09;38.29;101474.62;1818810;76;20995;-56
2021/03/26 09:01:55;;;;;;;4.90;2.55;;;;;;;22.11;38.17;101475.67;1820596;76;21193;-55
2021/03/26 09:04:41;;;;;;;;;;;;;;;22.11;38.16;101470.13;1758560;80;21259;-58
2021/03/26 09:07:19;;;;;;;6.37;3.00;;;;;;;22.08;38.14;101477.13;1786911;78;21205;-56
2021/03/26 09:10:24;;;;;;;6.58;3.47;;;;;;;22.08;38.11;101472.14;1854503;74;38132;-57
2021/03/26 09:13:21;;;;;;;5.75;3.20;;;;;;;22.15;37.23;101467.02;1838054;76;21507;-58
2021/03/26 09:16:07;;;;;;;5.45;2.75;;;;;;;22.13;37.31;101471.48;1828731;76;21134;-58
2021/03/26 09:19:05;;;;;;;4.75;2.70;;;;;;;22.13;37.38;101469.27;1833997;76;21181;-56
2021/03/26 09:22:13;;;;;;;4.12;2.85;;;;;;;22.12;37.43;101469.83;1837615;76;21047;-57
2021/03/26 09:25:09;;;;;;;5.00;2.95;;;;;;;22.08;37.50;101474.92;1835998;76;20996;-56
2021/03/26 09:27:58;;;;;;;5.03;2.40;;;;;;;22.04;37.60;101473.91;1837744;76;21071;-57
2021/03/26 09:30:34;;;;;;;4.92;2.87;;;;;;;22.03;37.66;101474.46;1832607;76;21205;-58
2021/03/26 09:33:13;;;;;;;4.20;2.37;;;;;;;22.04;37.70;101471.95;1828505;76;21606;-57
2021/03/26 09:35:53;;;;;;;6.33;3.20;;;;;;;22.02;37.76;101470.64;1811976;77;21610;-58
2021/03/26 09:38:37;;;;;;;3.75;2.33;;;;;;;22.00;37.79;101474.27;1832426;76;21735;-57
2021/03/26 09:41:13;;;;;;;5.10;2.95;;;;;;;21.95;37.87;101462.73;1838515;76;21199;-58
2021/03/26 09:43:54;;;;;;;4.70;2.42;;;;;;;21.95;37.94;101466.06;1829000;76;22152;-58
2021/03/26 09:46:41;;;;;;;5.35;2.87;;;;;;;21.96;38.01;101472.69;1840938;76;21209;-58
2021/03/26 09:49:44;;;;;;;4.58;2.58;;;;;;;21.98;38.03;101464.08;1835823;76;21166;-56
2021/03/26 09:52:24;;;;;;;3.83;2.67;;;;;;;21.98;38.04;101457.95;1768391;79;21202;-56
2021/03/26 09:55:13;;;;;;;4.72;2.40;;;;;;;21.94;38.09;101462.47;1763037;79;21201;-55
2021/03/26 09:57:51;;;;;;;4.55;2.85;;;;;;;21.92;38.16;101460.59;1767979;79;22683;-56
2021/03/26 10:00:44;;;;;;;5.17;2.83;;;;;;;21.92;38.20;101459.20;1763259;79;21189;-56
2021/03/26 10:03:31;;;;;;;3.67;2.42;;;;;;;21.93;38.22;101457.27;1799429;77;21196;-56
2021/03/26 10:06:22;;;;;;;3.72;2.45;;;;;;;21.92;38.26;101459.73;1768897;79;21244;-53
2021/03/26 10:09:02;;;;;;;;;;;;;;;21.88;38.31;101453.44;1778564;78;21264;-55
2021/03/26 10:11:48;;;;;;;5.58;2.65;;;;;;;21.86;38.37;101452.92;1755522;80;21270;-55
2021/03/26 10:14:18;;;;;;;3.70;2.00;;;;;;;21.85;38.46;101450.48;1778063;78;21558;-54
2021/03/26 10:17:13;;;;;;;8.40;2.90;;;;;;;21.86;38.53;101450.70;1773530;79;21191;-53
2021/03/26 10:19:50;;;;;;;5.10;2.30;;;;;;;21.87;38.59;101444.87;1765820;79;21431;-55
2021/03/26 10:22:33;;;;;;;5.60;2.80;;;;;;;21.88;38.62;101445.70;1749750;79;21213;-55
2021/03/26 10:25:08;;;;;;;5.72;2.10;;;;;;;21.85;38.63;101440.78;1761789;79;21221;-55
2021/03/26 10:27:39;;;;;;;3.92;2.70;;;;;;;21.82;38.67;101444.98;1757917;79;21145;-53
2021/03/26 10:30:14;;;;;;;5.53;2.27;;;;;;;21.79;38.72;101448.38;1777102;79;21256;-54
2021/03/26 10:32:40;;;;;;;3.30;2.40;;;;;;;21.77;38.79;101443.70;1775600;79;21151;-54
2021/03/26 10:35:21;;;;;;;3.47;2.45;;;;;;;21.73;38.80;101448.22;1777002;78;21192;-53
2021/03/26 10:38:06;;;;;;;4.53;2.70;;;;;;;21.70;38.86;101443.30;1775296;79;21808;-54
2021/03/26 10:40:46;;;;;;;4.75;3.15;;;;;;;21.67;38.90;101450.86;1776677;79;21159;-53
2021/03/26 10:43:27;;;;;;;5.00;2.90;;;;;;;21.63;38.95;101453.99;1775605;79;21073;-54
2021/03/26 10:46:14;;;;;;;3.25;2.40;;;;;;;21.63;39.00;101449.02;1765781;80;21186;-54
2021/03/26 10:48:55;;;;;;;3.95;2.50;;;;;;;21.65;39.01;101445.35;1770593;79;21666;-54
2021/03/26 10:51:48;;;;;;;6.53;2.72;;;;;;;21.65;39.02;101447.56;1771190;79;20946;-55
2021/03/26 10:54:23;;;;;;;3.10;2.00;;;;;;;21.64;39.03;101447.30;1774177;79;21146;-54
2021/03/26 10:57:04;;;;;;;4.37;2.80;;;;;;;21.64;39.05;101446.50;1765215;80;21568;-54
2021/03/26 10:59:40;;;;;;;;;;;;;;;21.62;39.07;101441.27;1768044;79;21126;-55
2021/03/26 11:02:42;;;;;;;3.77;2.75;;;;;;;21.61;39.09;101437.41;1768162;79;20157;-54
2021/03/26 11:05:23;;;;;;;5.30;2.52;;;;;;;21.58;39.12;101431.94;1776407;79;21566;-54
2021/03/26 11:08:03;;;;;;;3.83;2.10;;;;;;;21.56;39.18;101440.28;1767671;79;21691;-54
2021/03/26 11:10:44;;;;;;;3.70;2.35;;;;;;;21.55;39.21;101438.66;1720201;80;21747;-54
2021/03/26 11:13:51;;;;;;;3.85;2.67;;;;;;;21.56;39.24;101432.80;1785118;78;28294;-55
2021/03/26 11:16:34;;;;;;;4.45;2.50;;;;;;;21.59;39.26;101432.20;1770998;79;21059;-54
2021/03/26 11:19:13;;;;;;;4.33;2.35;;;;;;;21.60;39.26;101426.10;1773233;79;21207;-55
2021/03/26 11:21:44;;;;;;;2.72;2.00;;;;;;;21.59;39.27;101422.51;1785582;78;21154;-54
2021/03/26 11:24:11;;;;;;;4.50;2.30;;;;;;;21.59;39.30;101423.07;1781617;78;21230;-55
2021/03/26 11:26:46;;;;;;;5.75;2.72;;;;;;;21.58;39.32;101419.48;1784205;78;21218;-53
2021/03/26 11:29:23;;;;;;;4.08;2.33;;;;;;;21.57;39.35;101422.55;1788664;80;21215;-55
2021/03/26 11:32:24;;;;;;;4.15;2.62;;;;;;;21.56;39.38;101420.89;1786547;78;21201;-55
2021/03/26 11:35:05;;;;;;;4.20;2.58;;;;;;;21.53;39.42;101422.34;1783316;78;21645;-51
2021/03/26 11:37:38;;;;;;;3.65;2.65;;;;;;;21.56;39.48;101418.12;1784911;78;21221;-52
2021/03/26 11:40:30;;;;;;;4.47;2.85;;;;;;;21.58;39.50;101411.17;1781985;78;21123;-53
2021/03/26 11:43:12;;;;;;;4.92;2.35;;;;;;;21.60;39.51;101415.03;1782207;79;21223;-54
2021/03/26 11:46:01;;;;;;;4.42;2.27;;;;;;;21.61;39.51;101413.31;1778342;78;21142;-54
2021/03/26 11:48:58;;;;;;;3.67;2.30;;;;;;;21.60;39.54;101401.97;1786303;78;21158;-55
2021/03/26 11:51:41;;;;;;;5.85;2.40;;;;;;;21.61;39.54;101398.64;1768786;79;21452;-54
2021/03/26 11:54:22;;;;;;;3.30;2.27;;;;;;;21.60;39.57;101401.19;1786199;78;21553;-52
2021/03/26 11:57:23;;;;;;;3.50;2.40;;;;;;;21.60;39.56;101396.44;1778500;78;21051;-53
2021/03/26 12:00:28;;;;;;;3.87;2.22;;;;;;;21.60;39.61;101401.19;1787262;78;21196;-53
2021/03/26 12:03:24;;;;;;;3.33;2.12;;;;;;;21.62;39.64;101389.21;1785119;78;21392;-54
2021/03/26 12:06:24;;;;;;;4.00;2.52;;;;;;;21.64;39.67;101389.14;1778377;78;21210;-55
2021/03/26 12:08:56;;;;;;;4.03;2.37;;;;;;;21.66;39.68;101391.61;1781274;78;21224;-54
2021/03/26 12:12:00;;;;;;;3.47;2.12;;;;;;;21.66;39.68;101376.38;1776883;80;21170;-54
2021/03/26 12:14:47;;;;;;;3.02;2.05;;;;;;;21.66;39.70;101373.05;1781482;79;21593;-54
2021/03/26 12:17:42;;;;;;;4.50;2.70;;;;;;;21.66;39.73;101375.00;1775203;78;21197;-54
2021/03/26 12:20:32;;;;;;;3.77;2.40;;;;;;;21.66;39.75;101376.38;1768502;78;21156;-53
2021/03/26 12:23:34;;;;;;;4.63;2.80;;;;;;;21.65;39.78;101370.02;1775342;78;21703;-53
2021/03/26 12:26:35;;;;;;;4.60;2.40;;;;;;;21.67;39.83;101366.39;1772644;78;21162;-54
2021/03/26 12:29:16;;;;;;;;;;;;;;;21.71;39.88;101363.81;1778170;78;21193;-54
2021/03/26 12:32:04;;;;;;;3.58;2.22;;;;;;;21.74;39.91;101365.39;1778715;80;20313;-53
2021/03/26 12:34:48;;;;;;;2.92;2.25;;;;;;;21.75;39.90;101364.27;1777284;79;21133;-55
2021/03/26 12:37:52;;;;;;;4.33;2.62;;;;;;;21.76;39.90;101365.91;1767434;78;21234;-55
2021/03/26 12:40:50;;;;;;;4.60;2.50;;;;;;;21.76;39.93;101354.83;1775123;78;21661;-55